createdAt,value
2019-03-21T00:06:43.769Z,5.90
2019-03-21T00:16:45.107Z,5.03
2019-03-21T00:26:46.412Z,4.90
2019-03-21T00:36:47.715Z,5.10
2019-03-21T00:46:49.536Z,5.10
2019-03-21T00:56:50.835Z,4.57
2019-03-21T01:06:52.103Z,5.50
2019-03-21T01:16:53.414Z,4.50
2019-03-21T01:26:54.744Z,4.70
2019-03-21T01:36:56.057Z,4.80
2019-03-21T01:46:57.398Z,4.33
2019-03-21T01:56:58.702Z,4.87
2019-03-21T02:07:00.322Z,5.93
2019-03-21T02:17:01.777Z,5.97
2019-03-21T02:27:03.052Z,6.00
2019-03-21T02:37:04.376Z,5.13
2019-03-21T02:47:05.684Z,5.67
2019-03-21T02:57:07.006Z,5.13
2019-03-21T03:07:08.277Z,5.30
2019-03-21T03:17:09.633Z,4.93
2019-03-21T03:27:11.034Z,4.50
2019-03-21T03:37:12.333Z,4.37
2019-03-21T03:47:13.698Z,5.40
2019-03-21T03:57:15.049Z,5.17
2019-03-21T04:07:16.334Z,5.07
2019-03-21T04:17:17.790Z,6.20
2019-03-21T04:27:19.220Z,5.10
2019-03-21T04:37:20.652Z,6.00
2019-03-21T04:47:21.934Z,6.10
2019-03-21T04:57:23.359Z,6.07
2019-03-21T05:07:24.756Z,6.20
2019-03-21T05:17:26.505Z,5.50
2019-03-21T05:27:27.846Z,6.30
2019-03-21T05:37:29.251Z,6.17
2019-03-21T05:47:30.531Z,24.80
2019-03-21T05:57:31.814Z,7.03
2019-03-21T06:07:33.154Z,7.97
2019-03-21T06:17:34.494Z,7.27
2019-03-21T06:27:35.757Z,7.20
2019-03-21T06:37:38.030Z,7.13
2019-03-21T06:47:39.277Z,6.50
2019-03-21T06:57:40.561Z,6.17
2019-03-21T07:07:41.831Z,5.37
2019-03-21T07:17:43.878Z,5.67
2019-03-21T07:27:45.170Z,5.80
2019-03-21T07:37:46.961Z,5.50
2019-03-21T07:47:48.262Z,4.87
2019-03-21T07:57:49.545Z,4.40
2019-03-21T08:07:50.828Z,4.13
2019-03-21T08:17:52.849Z,3.90
2019-03-21T08:27:54.944Z,3.40
2019-03-21T08:37:56.217Z,3.30
2019-03-21T08:47:57.496Z,3.97
2019-03-21T08:57:58.777Z,3.57
2019-03-21T09:08:00.098Z,4.23
2019-03-21T09:18:01.377Z,4.00
2019-03-21T09:28:03.175Z,3.60
2019-03-21T09:38:03.986Z,4.20
2019-03-21T09:48:05.244Z,4.00
2019-03-21T09:58:06.529Z,4.12
2019-03-21T10:08:08.554Z,3.37
2019-03-21T10:18:09.809Z,4.18
2019-03-21T10:28:11.853Z,4.28
2019-03-21T10:38:13.909Z,4.15
2019-03-21T10:48:15.227Z,3.92
2019-03-21T10:58:16.540Z,4.30
2019-03-21T11:08:17.839Z,4.27
2019-03-21T11:18:19.131Z,4.60
2019-03-21T11:28:20.410Z,4.40
2019-03-21T11:38:21.698Z,4.20
2019-03-21T11:48:22.995Z,4.27
2019-03-21T11:58:24.261Z,4.30
2019-03-21T12:08:25.520Z,4.80
2019-03-21T12:18:27.571Z,4.30
2019-03-21T12:28:28.865Z,4.70
2019-03-21T12:38:30.137Z,4.53
2019-03-21T12:48:32.176Z,5.13
2019-03-21T12:58:33.451Z,4.50
2019-03-21T13:08:34.739Z,4.80
2019-03-21T13:18:36.794Z,5.13
2019-03-21T13:28:38.216Z,4.57
2019-03-21T13:38:39.532Z,5.40
2019-03-21T13:48:40.818Z,5.47
2019-03-21T13:58:42.108Z,5.07
2019-03-21T14:08:43.414Z,5.27
2019-03-21T14:18:44.730Z,5.57
2019-03-21T14:28:47.549Z,6.33
2019-03-21T14:38:48.906Z,6.47
2019-03-21T14:48:54.471Z,5.63
2019-03-21T14:58:55.745Z,7.03
2019-03-21T15:08:57.819Z,6.17
2019-03-21T15:18:59.112Z,6.20
2019-03-21T15:29:04.306Z,6.47
2019-03-21T15:39:06.662Z,7.00
2019-03-21T15:49:09.735Z,6.37
2019-03-21T15:59:11.080Z,6.83
2019-03-21T16:09:12.512Z,6.82
2019-03-21T16:19:13.846Z,5.80
2019-03-21T16:29:15.248Z,5.57
2019-03-21T16:39:16.614Z,6.20
2019-03-21T16:49:17.928Z,6.40
2019-03-21T17:09:26.618Z,6.97
2019-03-21T17:19:29.449Z,12.37
2019-03-21T17:29:32.900Z,7.50
2019-03-21T17:39:35.572Z,26.35
2019-03-21T17:49:38.304Z,19.30
2019-03-21T17:59:39.664Z,8.17
2019-03-21T18:09:41.767Z,8.47
2019-03-21T18:19:43.033Z,8.97
2019-03-21T18:29:44.326Z,11.03
2019-03-21T18:39:45.658Z,8.77
2019-03-21T18:49:46.944Z,9.93
2019-03-21T18:59:48.213Z,9.00
2019-03-21T19:09:49.456Z,8.73
2019-03-21T19:19:51.505Z,8.97
2019-03-21T19:29:52.806Z,8.70
2019-03-21T19:39:55.061Z,9.43
2019-03-21T19:49:56.310Z,9.37
2019-03-21T19:59:57.602Z,11.43
2019-03-21T20:20:05.689Z,12.27
2019-03-21T20:30:06.965Z,13.37
2019-03-21T20:40:08.256Z,15.07
2019-03-21T20:50:09.529Z,13.83
2019-03-21T21:00:10.810Z,12.70
2019-03-21T21:10:12.178Z,11.50
2019-03-21T21:20:14.274Z,11.40
2019-03-21T21:30:15.574Z,11.27
2019-03-21T21:40:16.848Z,11.50
2019-03-21T21:50:18.111Z,12.33
2019-03-21T22:00:19.408Z,12.53
2019-03-21T22:10:20.694Z,11.30
2019-03-21T22:20:21.980Z,10.13
2019-03-21T22:30:23.253Z,12.07
2019-03-21T22:40:24.854Z,12.57
2019-03-21T22:50:26.137Z,12.40
2019-03-21T23:00:27.412Z,11.53
2019-03-21T23:10:28.689Z,10.70
2019-03-21T23:20:29.940Z,9.37
2019-03-21T23:30:33.407Z,9.53
2019-03-21T23:40:33.274Z,10.13
2019-03-21T23:50:34.538Z,9.73
